sensor_id;sensor_type;location;lat;lon;timestamp;P1;durP1;ratioP1;P2;durP2;ratioP2
68940;SDS011;55982;51.476;7.552;2022-10-22T00:01:54;11.02;;;3.55;;
68940;SDS011;55982;51.476;7.552;2022-10-22T00:04:19;7.75;;;3.30;;
68940;SDS011;55982;51.476;7.552;2022-10-22T00:06:45;18.67;;;3.65;;
68940;SDS011;55982;51.476;7.552;2022-10-22T00:09:11;11.68;;;4.25;;
68940;SDS011;55982;51.476;7.552;2022-10-22T00:11:37;6.03;;;3.55;;
68940;SDS011;55982;51.476;7.552;2022-10-22T00:14:03;7.15;;;4.30;;
68940;SDS011;55982;51.476;7.552;2022-10-22T00:16:29;9.55;;;3.70;;
68940;SDS011;55982;51.476;7.552;2022-10-22T00:18:54;10.98;;;4.10;;
68940;SDS011;55982;51.476;7.552;2022-10-22T00:21:19;10.82;;;3.92;;
68940;SDS011;55982;51.476;7.552;2022-10-22T00:23:45;10.73;;;3.83;;
68940;SDS011;55982;51.476;7.552;2022-10-22T00:26:11;14.88;;;5.07;;
68940;SDS011;55982;51.476;7.552;2022-10-22T00:28:36;8.55;;;3.70;;
68940;SDS011;55982;51.476;7.552;2022-10-22T00:31:02;11.80;;;3.85;;
68940;SDS011;55982;51.476;7.552;2022-10-22T00:33:28;12.90;;;4.30;;
68940;SDS011;55982;51.476;7.552;2022-10-22T00:35:54;9.15;;;3.58;;
68940;SDS011;55982;51.476;7.552;2022-10-22T00:38:20;10.10;;;4.18;;
68940;SDS011;55982;51.476;7.552;2022-10-22T00:40:45;17.05;;;4.65;;
68940;SDS011;55982;51.476;7.552;2022-10-22T00:43:12;8.40;;;4.38;;
68940;SDS011;55982;51.476;7.552;2022-10-22T00:45:39;11.93;;;4.40;;
68940;SDS011;55982;51.476;7.552;2022-10-22T00:48:11;10.15;;;4.00;;
68940;SDS011;55982;51.476;7.552;2022-10-22T00:50:51;8.23;;;4.38;;
68940;SDS011;55982;51.476;7.552;2022-10-22T00:53:21;12.85;;;4.05;;
68940;SDS011;55982;51.476;7.552;2022-10-22T00:55:53;7.60;;;4.50;;
68940;SDS011;55982;51.476;7.552;2022-10-22T00:58:20;13.25;;;4.47;;
68940;SDS011;55982;51.476;7.552;2022-10-22T01:00:48;14.68;;;4.40;;
68940;SDS011;55982;51.476;7.552;2022-10-22T01:03:13;12.20;;;4.00;;
68940;SDS011;55982;51.476;7.552;2022-10-22T01:05:43;8.07;;;4.53;;
68940;SDS011;55982;51.476;7.552;2022-10-22T01:08:21;9.23;;;4.78;;
68940;SDS011;55982;51.476;7.552;2022-10-22T01:10:59;10.68;;;4.32;;
68940;SDS011;55982;51.476;7.552;2022-10-22T01:13:55;14.88;;;4.60;;
68940;SDS011;55982;51.476;7.552;2022-10-22T01:16:33;20.05;;;4.93;;
68940;SDS011;55982;51.476;7.552;2022-10-22T01:22:19;12.82;;;4.75;;
68940;SDS011;55982;51.476;7.552;2022-10-22T01:30:27;8.82;;;4.38;;
68940;SDS011;55982;51.476;7.552;2022-10-22T01:32:53;17.52;;;5.32;;
68940;SDS011;55982;51.476;7.552;2022-10-22T01:35:26;14.90;;;4.82;;
68940;SDS011;55982;51.476;7.552;2022-10-22T01:37:57;12.27;;;4.22;;
68940;SDS011;55982;51.476;7.552;2022-10-22T01:40:27;11.45;;;4.55;;
68940;SDS011;55982;51.476;7.552;2022-10-22T01:42:54;14.48;;;4.85;;
68940;SDS011;55982;51.476;7.552;2022-10-22T01:45:23;11.60;;;4.78;;
68940;SDS011;55982;51.476;7.552;2022-10-22T01:47:55;14.00;;;5.07;;
68940;SDS011;55982;51.476;7.552;2022-10-22T01:51:18;12.45;;;5.05;;
68940;SDS011;55982;51.476;7.552;2022-10-22T01:53:29;15.30;;;5.45;;
68940;SDS011;55982;51.476;7.552;2022-10-22T02:04:10;22.42;;;6.10;;
68940;SDS011;55982;51.476;7.552;2022-10-22T02:07:03;13.98;;;6.05;;
68940;SDS011;55982;51.476;7.552;2022-10-22T02:09:31;13.27;;;5.57;;
68940;SDS011;55982;51.476;7.552;2022-10-22T02:11:59;12.27;;;5.47;;
68940;SDS011;55982;51.476;7.552;2022-10-22T02:14:27;12.25;;;6.07;;
68940;SDS011;55982;51.476;7.552;2022-10-22T02:16:53;9.40;;;5.50;;
68940;SDS011;55982;51.476;7.552;2022-10-22T02:21:53;19.85;;;6.47;;
68940;SDS011;55982;51.476;7.552;2022-10-22T02:24:19;11.73;;;5.38;;
68940;SDS011;55982;51.476;7.552;2022-10-22T02:29:34;13.95;;;5.80;;
68940;SDS011;55982;51.476;7.552;2022-10-22T02:32:04;12.68;;;5.70;;
68940;SDS011;55982;51.476;7.552;2022-10-22T02:34:32;12.45;;;5.40;;
68940;SDS011;55982;51.476;7.552;2022-10-22T02:36:58;16.38;;;5.95;;
68940;SDS011;55982;51.476;7.552;2022-10-22T02:39:25;14.73;;;5.75;;
68940;SDS011;55982;51.476;7.552;2022-10-22T02:41:51;12.07;;;5.93;;
68940;SDS011;55982;51.476;7.552;2022-10-22T02:44:19;18.00;;;5.93;;
68940;SDS011;55982;51.476;7.552;2022-10-22T02:46:46;13.98;;;5.68;;
68940;SDS011;55982;51.476;7.552;2022-10-22T02:49:12;13.77;;;5.82;;
68940;SDS011;55982;51.476;7.552;2022-10-22T02:51:37;7.65;;;4.90;;
68940;SDS011;55982;51.476;7.552;2022-10-22T02:54:02;17.90;;;6.18;;
68940;SDS011;55982;51.476;7.552;2022-10-22T02:56:28;13.32;;;6.03;;
68940;SDS011;55982;51.476;7.552;2022-10-22T02:58:53;11.65;;;5.53;;
68940;SDS011;55982;51.476;7.552;2022-10-22T03:01:19;10.73;;;5.28;;
68940;SDS011;55982;51.476;7.552;2022-10-22T03:03:44;14.10;;;5.72;;
68940;SDS011;55982;51.476;7.552;2022-10-22T03:06:09;12.52;;;6.40;;
68940;SDS011;55982;51.476;7.552;2022-10-22T03:08:35;15.23;;;6.18;;
68940;SDS011;55982;51.476;7.552;2022-10-22T03:11:00;10.77;;;6.13;;
68940;SDS011;55982;51.476;7.552;2022-10-22T03:13:25;13.57;;;6.70;;
68940;SDS011;55982;51.476;7.552;2022-10-22T03:15:51;17.60;;;6.70;;
68940;SDS011;55982;51.476;7.552;2022-10-22T03:18:16;16.20;;;6.90;;
68940;SDS011;55982;51.476;7.552;2022-10-22T03:20:42;14.93;;;5.97;;
68940;SDS011;55982;51.476;7.552;2022-10-22T03:23:08;11.70;;;5.72;;
68940;SDS011;55982;51.476;7.552;2022-10-22T03:25:35;12.52;;;5.55;;
68940;SDS011;55982;51.476;7.552;2022-10-22T03:28:02;12.90;;;6.28;;
68940;SDS011;55982;51.476;7.552;2022-10-22T03:30:30;11.50;;;5.90;;
68940;SDS011;55982;51.476;7.552;2022-10-22T03:32:56;15.30;;;6.82;;
68940;SDS011;55982;51.476;7.552;2022-10-22T03:35:21;12.98;;;6.03;;
68940;SDS011;55982;51.476;7.552;2022-10-22T03:37:47;9.82;;;6.05;;
68940;SDS011;55982;51.476;7.552;2022-10-22T03:40:13;16.05;;;6.43;;
68940;SDS011;55982;51.476;7.552;2022-10-22T03:42:39;12.55;;;6.63;;
68940;SDS011;55982;51.476;7.552;2022-10-22T03:45:05;15.30;;;6.78;;
68940;SDS011;55982;51.476;7.552;2022-10-22T03:47:31;19.27;;;6.65;;
68940;SDS011;55982;51.476;7.552;2022-10-22T03:49:57;11.98;;;6.93;;
68940;SDS011;55982;51.476;7.552;2022-10-22T03:52:22;14.18;;;6.50;;
68940;SDS011;55982;51.476;7.552;2022-10-22T03:54:47;12.23;;;7.13;;
68940;SDS011;55982;51.476;7.552;2022-10-22T03:57:13;10.30;;;7.18;;
68940;SDS011;55982;51.476;7.552;2022-10-22T03:59:40;17.50;;;7.35;;
68940;SDS011;55982;51.476;7.552;2022-10-22T04:02:07;18.80;;;8.43;;
68940;SDS011;55982;51.476;7.552;2022-10-22T04:04:34;15.88;;;7.43;;
68940;SDS011;55982;51.476;7.552;2022-10-22T04:07:00;14.73;;;8.27;;
68940;SDS011;55982;51.476;7.552;2022-10-22T04:09:25;14.65;;;8.20;;
68940;SDS011;55982;51.476;7.552;2022-10-22T04:11:51;15.02;;;7.70;;
68940;SDS011;55982;51.476;7.552;2022-10-22T04:14:16;18.48;;;8.70;;
68940;SDS011;55982;51.476;7.552;2022-10-22T04:16:41;19.63;;;9.07;;
68940;SDS011;55982;51.476;7.552;2022-10-22T04:19:07;18.40;;;8.82;;
68940;SDS011;55982;51.476;7.552;2022-10-22T04:21:33;18.23;;;9.43;;
68940;SDS011;55982;51.476;7.552;2022-10-22T04:23:58;15.70;;;9.70;;
68940;SDS011;55982;51.476;7.552;2022-10-22T04:26:24;23.13;;;10.48;;
68940;SDS011;55982;51.476;7.552;2022-10-22T04:28:50;21.70;;;10.95;;
68940;SDS011;55982;51.476;7.552;2022-10-22T04:31:17;20.90;;;11.38;;
68940;SDS011;55982;51.476;7.552;2022-10-22T04:33:47;22.55;;;11.10;;
68940;SDS011;55982;51.476;7.552;2022-10-22T04:36:17;19.30;;;11.52;;
68940;SDS011;55982;51.476;7.552;2022-10-22T04:38:43;26.33;;;11.18;;
68940;SDS011;55982;51.476;7.552;2022-10-22T04:41:11;19.20;;;11.75;;
68940;SDS011;55982;51.476;7.552;2022-10-22T04:43:41;25.25;;;12.60;;
68940;SDS011;55982;51.476;7.552;2022-10-22T04:46:07;23.23;;;11.77;;
68940;SDS011;55982;51.476;7.552;2022-10-22T04:48:36;22.25;;;12.07;;
68940;SDS011;55982;51.476;7.552;2022-10-22T04:51:04;19.73;;;12.07;;
68940;SDS011;55982;51.476;7.552;2022-10-22T04:53:32;22.52;;;12.32;;
68940;SDS011;55982;51.476;7.552;2022-10-22T04:59:01;24.27;;;12.50;;
68940;SDS011;55982;51.476;7.552;2022-10-22T05:01:32;21.25;;;12.18;;
68940;SDS011;55982;51.476;7.552;2022-10-22T05:04:00;33.35;;;12.40;;
68940;SDS011;55982;51.476;7.552;2022-10-22T05:06:28;20.75;;;13.90;;
68940;SDS011;55982;51.476;7.552;2022-10-22T05:08:56;21.60;;;13.90;;
68940;SDS011;55982;51.476;7.552;2022-10-22T05:11:25;23.65;;;13.68;;
68940;SDS011;55982;51.476;7.552;2022-10-22T05:13:56;28.52;;;14.18;;
68940;SDS011;55982;51.476;7.552;2022-10-22T05:16:23;26.42;;;13.88;;
68940;SDS011;55982;51.476;7.552;2022-10-22T05:18:49;26.33;;;15.23;;
68940;SDS011;55982;51.476;7.552;2022-10-22T05:21:15;28.77;;;14.63;;
68940;SDS011;55982;51.476;7.552;2022-10-22T05:23:42;29.38;;;14.65;;
68940;SDS011;55982;51.476;7.552;2022-10-22T05:26:09;24.60;;;14.93;;
68940;SDS011;55982;51.476;7.552;2022-10-22T05:28:35;28.15;;;15.80;;
68940;SDS011;55982;51.476;7.552;2022-10-22T05:31:03;30.52;;;15.15;;
68940;SDS011;55982;51.476;7.552;2022-10-22T05:33:31;35.38;;;15.40;;
68940;SDS011;55982;51.476;7.552;2022-10-22T05:35:57;25.33;;;14.02;;
68940;SDS011;55982;51.476;7.552;2022-10-22T05:38:23;24.05;;;14.70;;
68940;SDS011;55982;51.476;7.552;2022-10-22T05:41:02;22.52;;;13.98;;
68940;SDS011;55982;51.476;7.552;2022-10-22T05:43:32;25.08;;;14.48;;
68940;SDS011;55982;51.476;7.552;2022-10-22T05:46:05;26.25;;;15.18;;
68940;SDS011;55982;51.476;7.552;2022-10-22T05:48:32;27.30;;;15.38;;
68940;SDS011;55982;51.476;7.552;2022-10-22T05:51:05;29.70;;;15.45;;
68940;SDS011;55982;51.476;7.552;2022-10-22T05:53:33;33.15;;;16.13;;
68940;SDS011;55982;51.476;7.552;2022-10-22T05:56:04;28.58;;;16.13;;
68940;SDS011;55982;51.476;7.552;2022-10-22T05:58:31;29.60;;;16.40;;
68940;SDS011;55982;51.476;7.552;2022-10-22T06:01:00;33.38;;;15.88;;
68940;SDS011;55982;51.476;7.552;2022-10-22T06:03:27;26.10;;;15.43;;
68940;SDS011;55982;51.476;7.552;2022-10-22T06:05:53;28.73;;;16.05;;
68940;SDS011;55982;51.476;7.552;2022-10-22T06:08:18;29.02;;;16.17;;
68940;SDS011;55982;51.476;7.552;2022-10-22T06:10:44;24.88;;;15.27;;
68940;SDS011;55982;51.476;7.552;2022-10-22T06:13:09;32.58;;;15.80;;
68940;SDS011;55982;51.476;7.552;2022-10-22T06:15:35;29.13;;;15.60;;
68940;SDS011;55982;51.476;7.552;2022-10-22T06:18:00;27.38;;;15.10;;
68940;SDS011;55982;51.476;7.552;2022-10-22T06:20:25;28.98;;;16.17;;
68940;SDS011;55982;51.476;7.552;2022-10-22T06:22:51;28.13;;;16.17;;
68940;SDS011;55982;51.476;7.552;2022-10-22T06:25:16;32.65;;;16.70;;
68940;SDS011;55982;51.476;7.552;2022-10-22T06:27:41;31.60;;;16.52;;
68940;SDS011;55982;51.476;7.552;2022-10-22T06:30:07;30.27;;;16.38;;
68940;SDS011;55982;51.476;7.552;2022-10-22T06:32:33;24.70;;;15.80;;
68940;SDS011;55982;51.476;7.552;2022-10-22T06:34:58;26.60;;;15.98;;
68940;SDS011;55982;51.476;7.552;2022-10-22T06:37:23;25.70;;;16.90;;
68940;SDS011;55982;51.476;7.552;2022-10-22T06:39:49;29.60;;;17.05;;
68940;SDS011;55982;51.476;7.552;2022-10-22T06:42:14;29.70;;;17.17;;
68940;SDS011;55982;51.476;7.552;2022-10-22T06:44:39;30.35;;;17.38;;
68940;SDS011;55982;51.476;7.552;2022-10-22T06:47:05;28.48;;;16.38;;
68940;SDS011;55982;51.476;7.552;2022-10-22T06:49:30;31.17;;;15.85;;
68940;SDS011;55982;51.476;7.552;2022-10-22T06:51:55;32.47;;;18.25;;
68940;SDS011;55982;51.476;7.552;2022-10-22T06:54:21;28.08;;;17.48;;
68940;SDS011;55982;51.476;7.552;2022-10-22T06:56:47;29.50;;;15.75;;
68940;SDS011;55982;51.476;7.552;2022-10-22T06:59:12;25.30;;;15.35;;
68940;SDS011;55982;51.476;7.552;2022-10-22T07:01:38;27.15;;;16.33;;
68940;SDS011;55982;51.476;7.552;2022-10-22T07:04:03;31.55;;;14.73;;
68940;SDS011;55982;51.476;7.552;2022-10-22T07:06:30;25.42;;;15.10;;
68940;SDS011;55982;51.476;7.552;2022-10-22T07:08:56;27.75;;;15.35;;
68940;SDS011;55982;51.476;7.552;2022-10-22T07:11:23;25.00;;;14.13;;
68940;SDS011;55982;51.476;7.552;2022-10-22T07:13:52;31.90;;;13.40;;
68940;SDS011;55982;51.476;7.552;2022-10-22T07:16:18;24.55;;;12.35;;
68940;SDS011;55982;51.476;7.552;2022-10-22T07:18:44;18.70;;;12.00;;
68940;SDS011;55982;51.476;7.552;2022-10-22T07:21:10;16.92;;;10.95;;
68940;SDS011;55982;51.476;7.552;2022-10-22T07:23:37;21.25;;;11.30;;
68940;SDS011;55982;51.476;7.552;2022-10-22T07:26:03;16.05;;;9.38;;
68940;SDS011;55982;51.476;7.552;2022-10-22T07:28:31;19.27;;;9.20;;
68940;SDS011;55982;51.476;7.552;2022-10-22T07:30:57;13.48;;;8.68;;
68940;SDS011;55982;51.476;7.552;2022-10-22T07:33:23;14.75;;;7.32;;
68940;SDS011;55982;51.476;7.552;2022-10-22T07:35:49;13.27;;;6.90;;
68940;SDS011;55982;51.476;7.552;2022-10-22T07:38:14;11.55;;;5.93;;
68940;SDS011;55982;51.476;7.552;2022-10-22T07:40:39;13.75;;;5.53;;
68940;SDS011;55982;51.476;7.552;2022-10-22T07:43:05;13.25;;;5.53;;
68940;SDS011;55982;51.476;7.552;2022-10-22T07:45:30;9.88;;;4.75;;
68940;SDS011;55982;51.476;7.552;2022-10-22T07:47:56;10.35;;;5.38;;
68940;SDS011;55982;51.476;7.552;2022-10-22T07:50:21;9.15;;;5.43;;
68940;SDS011;55982;51.476;7.552;2022-10-22T07:52:46;11.48;;;5.78;;
68940;SDS011;55982;51.476;7.552;2022-10-22T07:55:12;10.90;;;5.07;;
68940;SDS011;55982;51.476;7.552;2022-10-22T07:57:38;12.45;;;5.07;;
68940;SDS011;55982;51.476;7.552;2022-10-22T08:00:04;8.18;;;4.82;;
68940;SDS011;55982;51.476;7.552;2022-10-22T08:02:31;9.57;;;4.80;;
68940;SDS011;55982;51.476;7.552;2022-10-22T08:04:57;12.35;;;4.60;;
68940;SDS011;55982;51.476;7.552;2022-10-22T08:07:23;11.55;;;4.25;;
68940;SDS011;55982;51.476;7.552;2022-10-22T08:09:48;9.80;;;3.80;;
68940;SDS011;55982;51.476;7.552;2022-10-22T08:12:14;12.23;;;3.90;;
68940;SDS011;55982;51.476;7.552;2022-10-22T08:14:39;5.88;;;3.13;;
68940;SDS011;55982;51.476;7.552;2022-10-22T08:17:05;7.82;;;2.95;;
68940;SDS011;55982;51.476;7.552;2022-10-22T08:19:30;9.05;;;3.80;;
68940;SDS011;55982;51.476;7.552;2022-10-22T08:21:56;6.53;;;3.08;;
68940;SDS011;55982;51.476;7.552;2022-10-22T08:24:23;9.15;;;3.33;;
68940;SDS011;55982;51.476;7.552;2022-10-22T08:26:48;14.10;;;2.80;;
68940;SDS011;55982;51.476;7.552;2022-10-22T08:29:13;10.35;;;2.67;;
68940;SDS011;55982;51.476;7.552;2022-10-22T08:31:39;10.70;;;2.95;;
68940;SDS011;55982;51.476;7.552;2022-10-22T08:34:04;7.40;;;2.45;;
68940;SDS011;55982;51.476;7.552;2022-10-22T08:36:30;9.57;;;2.63;;
68940;SDS011;55982;51.476;7.552;2022-10-22T08:38:55;13.00;;;3.20;;
68940;SDS011;55982;51.476;7.552;2022-10-22T08:41:21;6.38;;;2.50;;
68940;SDS011;55982;51.476;7.552;2022-10-22T08:49:38;7.63;;;2.72;;
68940;SDS011;55982;51.476;7.552;2022-10-22T08:52:07;6.55;;;2.67;;
68940;SDS011;55982;51.476;7.552;2022-10-22T09:05:12;13.60;;;2.72;;
68940;SDS011;55982;51.476;7.552;2022-10-22T09:07:46;7.15;;;2.97;;
68940;SDS011;55982;51.476;7.552;2022-10-22T09:10:14;10.13;;;2.63;;
68940;SDS011;55982;51.476;7.552;2022-10-22T09:12:44;8.85;;;2.95;;
68940;SDS011;55982;51.476;7.552;2022-10-22T09:15:15;7.30;;;2.78;;
68940;SDS011;55982;51.476;7.552;2022-10-22T09:20:58;10.30;;;3.25;;
68940;SDS011;55982;51.476;7.552;2022-10-22T09:26:15;9.63;;;3.00;;
68940;SDS011;55982;51.476;7.552;2022-10-22T09:28:41;6.95;;;2.92;;
68940;SDS011;55982;51.476;7.552;2022-10-22T09:31:11;9.35;;;2.90;;
68940;SDS011;55982;51.476;7.552;2022-10-22T09:33:38;12.23;;;3.47;;
68940;SDS011;55982;51.476;7.552;2022-10-22T09:36:04;6.75;;;3.13;;
68940;SDS011;55982;51.476;7.552;2022-10-22T09:38:38;9.20;;;3.17;;
68940;SDS011;55982;51.476;7.552;2022-10-22T09:41:05;13.00;;;3.60;;
68940;SDS011;55982;51.476;7.552;2022-10-22T09:43:32;8.57;;;3.42;;
68940;SDS011;55982;51.476;7.552;2022-10-22T09:45:58;11.43;;;4.07;;
68940;SDS011;55982;51.476;7.552;2022-10-22T09:53:46;9.57;;;3.83;;
68940;SDS011;55982;51.476;7.552;2022-10-22T09:56:23;11.75;;;3.78;;
68940;SDS011;55982;51.476;7.552;2022-10-22T09:58:55;13.20;;;3.92;;
68940;SDS011;55982;51.476;7.552;2022-10-22T10:01:24;9.55;;;3.13;;
68940;SDS011;55982;51.476;7.552;2022-10-22T10:04:01;14.32;;;4.65;;
68940;SDS011;55982;51.476;7.552;2022-10-22T10:06:32;9.02;;;2.83;;
68940;SDS011;55982;51.476;7.552;2022-10-22T10:08:58;5.82;;;3.05;;
68940;SDS011;55982;51.476;7.552;2022-10-22T10:11:40;14.43;;;2.83;;
68940;SDS011;55982;51.476;7.552;2022-10-22T10:17:09;10.02;;;2.80;;
68940;SDS011;55982;51.476;7.552;2022-10-22T10:19:45;7.15;;;2.75;;
68940;SDS011;55982;51.476;7.552;2022-10-22T10:27:35;11.35;;;2.90;;
68940;SDS011;55982;51.476;7.552;2022-10-22T10:30:07;10.15;;;3.38;;
68940;SDS011;55982;51.476;7.552;2022-10-22T10:40:44;13.35;;;2.60;;
68940;SDS011;55982;51.476;7.552;2022-10-22T10:43:21;12.40;;;2.85;;
68940;SDS011;55982;51.476;7.552;2022-10-22T10:59:07;7.90;;;3.22;;
68940;SDS011;55982;51.476;7.552;2022-10-22T11:07:11;8.48;;;2.50;;
68940;SDS011;55982;51.476;7.552;2022-10-22T11:09:44;11.65;;;2.88;;
68940;SDS011;55982;51.476;7.552;2022-10-22T11:12:20;7.70;;;2.70;;
68940;SDS011;55982;51.476;7.552;2022-10-22T11:17:34;7.43;;;2.25;;
68940;SDS011;55982;51.476;7.552;2022-10-22T11:20:17;7.18;;;2.80;;
68940;SDS011;55982;51.476;7.552;2022-10-22T11:22:50;8.27;;;2.13;;
68940;SDS011;55982;51.476;7.552;2022-10-22T11:25:22;7.72;;;2.15;;
68940;SDS011;55982;51.476;7.552;2022-10-22T11:27:55;7.55;;;2.08;;
68940;SDS011;55982;51.476;7.552;2022-10-22T11:30:26;5.65;;;1.95;;
68940;SDS011;55982;51.476;7.552;2022-10-22T11:32:57;11.93;;;1.83;;
68940;SDS011;55982;51.476;7.552;2022-10-22T11:35:27;8.20;;;1.90;;
68940;SDS011;55982;51.476;7.552;2022-10-22T11:37:55;5.47;;;1.60;;
68940;SDS011;55982;51.476;7.552;2022-10-22T11:40:31;5.07;;;1.50;;
68940;SDS011;55982;51.476;7.552;2022-10-22T11:43:09;6.38;;;1.80;;
68940;SDS011;55982;51.476;7.552;2022-10-22T11:45:49;7.35;;;1.88;;
68940;SDS011;55982;51.476;7.552;2022-10-22T11:48:26;7.43;;;2.20;;
68940;SDS011;55982;51.476;7.552;2022-10-22T11:50:56;7.38;;;1.60;;
68940;SDS011;55982;51.476;7.552;2022-10-22T11:55:55;6.75;;;1.50;;
68940;SDS011;55982;51.476;7.552;2022-10-22T12:00:52;6.50;;;1.50;;
68940;SDS011;55982;51.476;7.552;2022-10-22T12:06:01;4.82;;;1.60;;
68940;SDS011;55982;51.476;7.552;2022-10-22T12:08:32;9.70;;;1.30;;
68940;SDS011;55982;51.476;7.552;2022-10-22T12:16:25;3.05;;;1.48;;
68940;SDS011;55982;51.476;7.552;2022-10-22T12:18:59;8.25;;;1.42;;
68940;SDS011;55982;51.476;7.552;2022-10-22T12:21:31;8.73;;;1.85;;
68940;SDS011;55982;51.476;7.552;2022-10-22T12:23:58;11.45;;;1.88;;
68940;SDS011;55982;51.476;7.552;2022-10-22T12:26:29;12.18;;;1.77;;
68940;SDS011;55982;51.476;7.552;2022-10-22T12:28:59;9.90;;;1.48;;
68940;SDS011;55982;51.476;7.552;2022-10-22T12:31:25;5.72;;;1.05;;
68940;SDS011;55982;51.476;7.552;2022-10-22T12:33:57;6.82;;;1.38;;
68940;SDS011;55982;51.476;7.552;2022-10-22T12:36:30;7.97;;;1.20;;
68940;SDS011;55982;51.476;7.552;2022-10-22T12:39:00;3.05;;;1.42;;
68940;SDS011;55982;51.476;7.552;2022-10-22T12:41:30;3.40;;;1.25;;
68940;SDS011;55982;51.476;7.552;2022-10-22T12:43:57;4.68;;;1.25;;
68940;SDS011;55982;51.476;7.552;2022-10-22T12:46:23;3.90;;;1.30;;
68940;SDS011;55982;51.476;7.552;2022-10-22T12:48:51;5.60;;;1.02;;
68940;SDS011;55982;51.476;7.552;2022-10-22T12:51:17;3.95;;;1.33;;
68940;SDS011;55982;51.476;7.552;2022-10-22T12:53:45;6.75;;;1.30;;
68940;SDS011;55982;51.476;7.552;2022-10-22T12:56:14;5.40;;;1.52;;
68940;SDS011;55982;51.476;7.552;2022-10-22T12:58:45;5.20;;;1.27;;
68940;SDS011;55982;51.476;7.552;2022-10-22T13:01:15;10.10;;;2.08;;
68940;SDS011;55982;51.476;7.552;2022-10-22T13:03:43;6.80;;;1.40;;
68940;SDS011;55982;51.476;7.552;2022-10-22T13:11:36;7.78;;;1.45;;
68940;SDS011;55982;51.476;7.552;2022-10-22T13:14:04;3.90;;;1.30;;
68940;SDS011;55982;51.476;7.552;2022-10-22T13:16:41;5.80;;;1.25;;
68940;SDS011;55982;51.476;7.552;2022-10-22T13:19:31;4.82;;;1.75;;
68940;SDS011;55982;51.476;7.552;2022-10-22T13:24:50;6.03;;;2.00;;
68940;SDS011;55982;51.476;7.552;2022-10-22T13:27:16;6.38;;;1.50;;
68940;SDS011;55982;51.476;7.552;2022-10-22T13:29:42;7.20;;;2.00;;
68940;SDS011;55982;51.476;7.552;2022-10-22T13:35:06;5.95;;;1.75;;
68940;SDS011;55982;51.476;7.552;2022-10-22T13:37:37;10.10;;;1.60;;
68940;SDS011;55982;51.476;7.552;2022-10-22T13:40:09;2.72;;;1.30;;
68940;SDS011;55982;51.476;7.552;2022-10-22T13:42:36;5.35;;;1.13;;
68940;SDS011;55982;51.476;7.552;2022-10-22T13:45:03;4.82;;;1.67;;
68940;SDS011;55982;51.476;7.552;2022-10-22T13:47:28;8.63;;;1.38;;
68940;SDS011;55982;51.476;7.552;2022-10-22T13:49:54;6.03;;;1.33;;
68940;SDS011;55982;51.476;7.552;2022-10-22T13:52:31;6.03;;;1.48;;
68940;SDS011;55982;51.476;7.552;2022-10-22T13:57:45;6.20;;;1.20;;
68940;SDS011;55982;51.476;7.552;2022-10-22T14:00:15;6.63;;;1.60;;
68940;SDS011;55982;51.476;7.552;2022-10-22T14:02:43;5.22;;;1.02;;
68940;SDS011;55982;51.476;7.552;2022-10-22T14:05:11;3.05;;;1.17;;
68940;SDS011;55982;51.476;7.552;2022-10-22T14:07:38;7.28;;;1.40;;
68940;SDS011;55982;51.476;7.552;2022-10-22T14:10:17;3.45;;;1.20;;
68940;SDS011;55982;51.476;7.552;2022-10-22T14:12:44;6.13;;;1.60;;
68940;SDS011;55982;51.476;7.552;2022-10-22T14:15:10;4.88;;;1.30;;
68940;SDS011;55982;51.476;7.552;2022-10-22T14:17:38;5.40;;;1.42;;
68940;SDS011;55982;51.476;7.552;2022-10-22T14:20:08;6.03;;;1.38;;
68940;SDS011;55982;51.476;7.552;2022-10-22T14:22:39;4.00;;;1.40;;
68940;SDS011;55982;51.476;7.552;2022-10-22T14:25:05;5.10;;;1.15;;
68940;SDS011;55982;51.476;7.552;2022-10-22T14:27:30;4.32;;;1.45;;
68940;SDS011;55982;51.476;7.552;2022-10-22T14:29:56;4.20;;;1.25;;
68940;SDS011;55982;51.476;7.552;2022-10-22T14:32:21;5.28;;;1.20;;
68940;SDS011;55982;51.476;7.552;2022-10-22T14:34:46;7.68;;;1.55;;
68940;SDS011;55982;51.476;7.552;2022-10-22T14:37:14;5.05;;;1.17;;
68940;SDS011;55982;51.476;7.552;2022-10-22T14:39:42;5.00;;;1.17;;
68940;SDS011;55982;51.476;7.552;2022-10-22T14:42:10;5.80;;;0.90;;
68940;SDS011;55982;51.476;7.552;2022-10-22T14:44:36;7.22;;;1.30;;
68940;SDS011;55982;51.476;7.552;2022-10-22T14:47:01;11.80;;;1.50;;
68940;SDS011;55982;51.476;7.552;2022-10-22T14:49:27;9.20;;;1.60;;
68940;SDS011;55982;51.476;7.552;2022-10-22T14:51:52;2.30;;;0.90;;
68940;SDS011;55982;51.476;7.552;2022-10-22T14:54:17;8.50;;;1.30;;
68940;SDS011;55982;51.476;7.552;2022-10-22T14:56:43;5.38;;;1.52;;
68940;SDS011;55982;51.476;7.552;2022-10-22T14:59:08;5.53;;;1.58;;
68940;SDS011;55982;51.476;7.552;2022-10-22T15:01:34;8.68;;;1.58;;
68940;SDS011;55982;51.476;7.552;2022-10-22T15:03:59;5.00;;;1.55;;
68940;SDS011;55982;51.476;7.552;2022-10-22T15:06:24;5.22;;;1.85;;
68940;SDS011;55982;51.476;7.552;2022-10-22T15:08:50;5.30;;;1.50;;
68940;SDS011;55982;51.476;7.552;2022-10-22T15:11:15;8.02;;;1.85;;
68940;SDS011;55982;51.476;7.552;2022-10-22T15:13:40;6.35;;;1.30;;
68940;SDS011;55982;51.476;7.552;2022-10-22T15:16:07;6.10;;;1.30;;
68940;SDS011;55982;51.476;7.552;2022-10-22T15:18:34;4.82;;;1.70;;
68940;SDS011;55982;51.476;7.552;2022-10-22T15:21:10;4.93;;;1.40;;
68940;SDS011;55982;51.476;7.552;2022-10-22T15:23:41;4.25;;;1.02;;
68940;SDS011;55982;51.476;7.552;2022-10-22T15:26:07;6.15;;;1.30;;
68940;SDS011;55982;51.476;7.552;2022-10-22T15:28:34;4.70;;;1.20;;
68940;SDS011;55982;51.476;7.552;2022-10-22T15:31:00;6.30;;;1.70;;
68940;SDS011;55982;51.476;7.552;2022-10-22T15:33:26;4.85;;;1.30;;
68940;SDS011;55982;51.476;7.552;2022-10-22T15:35:52;5.07;;;1.65;;
68940;SDS011;55982;51.476;7.552;2022-10-22T15:38:18;5.10;;;1.30;;
68940;SDS011;55982;51.476;7.552;2022-10-22T15:40:44;5.22;;;1.67;;
68940;SDS011;55982;51.476;7.552;2022-10-22T15:43:10;5.57;;;1.65;;
68940;SDS011;55982;51.476;7.552;2022-10-22T15:45:35;6.88;;;1.40;;
68940;SDS011;55982;51.476;7.552;2022-10-22T15:48:01;7.70;;;1.85;;
68940;SDS011;55982;51.476;7.552;2022-10-22T15:50:27;5.68;;;1.48;;
68940;SDS011;55982;51.476;7.552;2022-10-22T15:52:52;7.78;;;2.10;;
68940;SDS011;55982;51.476;7.552;2022-10-22T15:55:18;8.75;;;1.65;;
68940;SDS011;55982;51.476;7.552;2022-10-22T15:57:44;5.57;;;2.22;;
68940;SDS011;55982;51.476;7.552;2022-10-22T16:00:09;7.07;;;2.13;;
68940;SDS011;55982;51.476;7.552;2022-10-22T16:02:35;6.50;;;2.15;;
68940;SDS011;55982;51.476;7.552;2022-10-22T16:05:00;6.82;;;3.15;;
68940;SDS011;55982;51.476;7.552;2022-10-22T16:07:26;8.43;;;3.58;;
68940;SDS011;55982;51.476;7.552;2022-10-22T16:09:58;11.13;;;3.88;;
68940;SDS011;55982;51.476;7.552;2022-10-22T16:12:24;9.70;;;3.67;;
68940;SDS011;55982;51.476;7.552;2022-10-22T16:14:49;11.70;;;4.70;;
68940;SDS011;55982;51.476;7.552;2022-10-22T16:17:15;10.63;;;4.30;;
68940;SDS011;55982;51.476;7.552;2022-10-22T16:19:40;8.35;;;3.92;;
68940;SDS011;55982;51.476;7.552;2022-10-22T16:22:06;11.50;;;3.70;;
68940;SDS011;55982;51.476;7.552;2022-10-22T16:24:34;10.70;;;4.70;;
68940;SDS011;55982;51.476;7.552;2022-10-22T16:26:59;6.38;;;3.75;;
68940;SDS011;55982;51.476;7.552;2022-10-22T16:29:24;11.75;;;4.43;;
68940;SDS011;55982;51.476;7.552;2022-10-22T16:31:50;11.77;;;5.07;;
68940;SDS011;55982;51.476;7.552;2022-10-22T16:34:15;11.43;;;4.82;;
68940;SDS011;55982;51.476;7.552;2022-10-22T16:36:40;13.70;;;4.30;;
68940;SDS011;55982;51.476;7.552;2022-10-22T16:39:08;10.23;;;4.40;;
68940;SDS011;55982;51.476;7.552;2022-10-22T16:41:33;11.95;;;4.50;;